sensor_id;sensor_type;location;lat;lon;timestamp;pressure;altitude;pressure_sealevel;temperature;humidity
49835;BME280;35729;52.090;13.162;2023-06-10T00:01:42;100958.00;;;18.56;57.50
49835;BME280;35729;52.090;13.162;2023-06-10T00:04:13;100955.56;;;18.52;57.53
49835;BME280;35729;52.090;13.162;2023-06-10T00:06:42;100967.44;;;18.45;58.13
49835;BME280;35729;52.090;13.162;2023-06-10T00:09:13;100969.47;;;18.39;58.30
49835;BME280;35729;52.090;13.162;2023-06-10T00:11:46;100967.22;;;18.32;58.26
49835;BME280;35729;52.090;13.162;2023-06-10T00:14:15;100959.56;;;18.26;58.50
49835;BME280;35729;52.090;13.162;2023-06-10T00:16:43;100954.72;;;18.16;59.16
49835;BME280;35729;52.090;13.162;2023-06-10T00:19:12;100966.66;;;18.07;59.56
49835;BME280;35729;52.090;13.162;2023-06-10T00:21:42;100971.25;;;18.04;59.27
49835;BME280;35729;52.090;13.162;2023-06-10T00:24:10;100971.25;;;18.04;59.51
49835;BME280;35729;52.090;13.162;2023-06-10T00:26:40;100966.03;;;18.02;59.99
49835;BME280;35729;52.090;13.162;2023-06-10T00:29:11;100960.09;;;17.97;60.20
49835;BME280;35729;52.090;13.162;2023-06-10T00:31:40;100962.22;;;17.89;59.76
49835;BME280;35729;52.090;13.162;2023-06-10T00:34:09;100974.84;;;17.84;59.96
49835;BME280;35729;52.090;13.162;2023-06-10T00:36:37;100973.38;;;17.78;60.05
49835;BME280;35729;52.090;13.162;2023-06-10T00:39:06;100962.03;;;17.74;60.51
49835;BME280;35729;52.090;13.162;2023-06-10T00:41:34;100962.16;;;17.71;60.65
49835;BME280;35729;52.090;13.162;2023-06-10T00:44:03;100959.69;;;17.68;60.41
49835;BME280;35729;52.090;13.162;2023-06-10T00:46:34;100967.84;;;17.64;60.84
49835;BME280;35729;52.090;13.162;2023-06-10T00:49:03;100970.78;;;17.57;60.95
49835;BME280;35729;52.090;13.162;2023-06-10T00:51:32;100972.03;;;17.50;61.28
49835;BME280;35729;52.090;13.162;2023-06-10T00:54:02;100981.03;;;17.46;61.43
49835;BME280;35729;52.090;13.162;2023-06-10T00:56:31;100971.44;;;17.43;61.60
49835;BME280;35729;52.090;13.162;2023-06-10T00:59:01;100972.53;;;17.39;61.79
49835;BME280;35729;52.090;13.162;2023-06-10T01:01:30;100967.50;;;17.33;61.97
49835;BME280;35729;52.090;13.162;2023-06-10T01:04:02;100975.81;;;17.25;62.45
49835;BME280;35729;52.090;13.162;2023-06-10T01:06:35;100969.94;;;17.19;62.51
49835;BME280;35729;52.090;13.162;2023-06-10T01:09:15;100968.56;;;17.10;63.09
49835;BME280;35729;52.090;13.162;2023-06-10T01:11:53;100973.28;;;17.03;63.13
49835;BME280;35729;52.090;13.162;2023-06-10T01:14:23;100967.41;;;16.97;63.53
49835;BME280;35729;52.090;13.162;2023-06-10T01:16:52;100971.28;;;16.88;64.25
49835;BME280;35729;52.090;13.162;2023-06-10T01:19:24;100971.69;;;16.78;64.22
49835;BME280;35729;52.090;13.162;2023-06-10T01:21:56;100973.75;;;16.72;64.72
49835;BME280;35729;52.090;13.162;2023-06-10T01:24:26;100976.72;;;16.64;64.88
49835;BME280;35729;52.090;13.162;2023-06-10T01:27:00;100972.66;;;16.57;65.75
49835;BME280;35729;52.090;13.162;2023-06-10T01:29:33;100978.31;;;16.48;65.95
49835;BME280;35729;52.090;13.162;2023-06-10T01:32:09;100967.22;;;16.39;66.12
49835;BME280;35729;52.090;13.162;2023-06-10T01:34:41;100982.44;;;16.34;66.49
49835;BME280;35729;52.090;13.162;2023-06-10T01:37:16;100987.97;;;16.28;67.20
49835;BME280;35729;52.090;13.162;2023-06-10T01:39:48;100984.72;;;16.21;67.01
49835;BME280;35729;52.090;13.162;2023-06-10T01:42:17;100984.09;;;16.15;67.40
49835;BME280;35729;52.090;13.162;2023-06-10T01:44:46;100985.28;;;16.07;67.69
49835;BME280;35729;52.090;13.162;2023-06-10T01:47:15;100988.19;;;16.01;68.24
49835;BME280;35729;52.090;13.162;2023-06-10T01:49:43;100981.44;;;15.94;68.68
49835;BME280;35729;52.090;13.162;2023-06-10T01:52:14;100987.78;;;15.90;68.82
49835;BME280;35729;52.090;13.162;2023-06-10T01:54:43;100989.84;;;15.82;69.29
49835;BME280;35729;52.090;13.162;2023-06-10T01:57:11;100985.69;;;15.74;69.66
49835;BME280;35729;52.090;13.162;2023-06-10T01:59:40;100978.06;;;15.67;69.75
49835;BME280;35729;52.090;13.162;2023-06-10T02:02:09;100990.44;;;15.66;69.96
49835;BME280;35729;52.090;13.162;2023-06-10T02:04:38;100987.88;;;15.63;70.11
49835;BME280;35729;52.090;13.162;2023-06-10T02:07:06;100987.09;;;15.61;70.29
49835;BME280;35729;52.090;13.162;2023-06-10T02:09:38;100990.72;;;15.58;70.61
49835;BME280;35729;52.090;13.162;2023-06-10T02:12:07;100982.91;;;15.55;70.79
49835;BME280;35729;52.090;13.162;2023-06-10T02:14:36;100988.25;;;15.54;70.97
49835;BME280;35729;52.090;13.162;2023-06-10T02:17:04;100992.78;;;15.50;71.40
49835;BME280;35729;52.090;13.162;2023-06-10T02:19:38;100987.72;;;15.44;71.60
49835;BME280;35729;52.090;13.162;2023-06-10T02:22:07;100991.44;;;15.40;71.50
49835;BME280;35729;52.090;13.162;2023-06-10T02:24:39;100986.19;;;15.38;71.90
49835;BME280;35729;52.090;13.162;2023-06-10T02:27:07;100990.66;;;15.36;72.09
49835;BME280;35729;52.090;13.162;2023-06-10T02:29:36;100983.66;;;15.35;72.09
49835;BME280;35729;52.090;13.162;2023-06-10T02:32:06;100983.78;;;15.32;72.24
49835;BME280;35729;52.090;13.162;2023-06-10T02:34:35;100984.75;;;15.29;72.48
49835;BME280;35729;52.090;13.162;2023-06-10T02:37:04;100981.38;;;15.26;72.53
49835;BME280;35729;52.090;13.162;2023-06-10T02:39:33;100990.28;;;15.23;72.69
49835;BME280;35729;52.090;13.162;2023-06-10T02:42:05;100977.97;;;15.22;73.10
49835;BME280;35729;52.090;13.162;2023-06-10T02:44:33;100986.88;;;15.20;73.27
49835;BME280;35729;52.090;13.162;2023-06-10T02:47:02;100981.75;;;15.15;73.30
49835;BME280;35729;52.090;13.162;2023-06-10T02:49:30;100982.63;;;15.15;73.36
49835;BME280;35729;52.090;13.162;2023-06-10T02:51:59;100980.00;;;15.15;73.20
49835;BME280;35729;52.090;13.162;2023-06-10T02:54:28;100980.78;;;15.18;73.28
49835;BME280;35729;52.090;13.162;2023-06-10T02:56:56;100982.63;;;15.15;73.70
49835;BME280;35729;52.090;13.162;2023-06-10T02:59:35;100978.41;;;15.11;73.65
49835;BME280;35729;52.090;13.162;2023-06-10T03:02:04;100988.16;;;15.09;74.10
49835;BME280;35729;52.090;13.162;2023-06-10T03:04:32;100988.25;;;15.06;74.19
49835;BME280;35729;52.090;13.162;2023-06-10T03:07:03;100980.38;;;15.05;73.79
49835;BME280;35729;52.090;13.162;2023-06-10T03:09:32;100982.25;;;15.01;74.50
49835;BME280;35729;52.090;13.162;2023-06-10T03:12:01;100994.78;;;14.96;74.93
49835;BME280;35729;52.090;13.162;2023-06-10T03:14:30;100993.25;;;14.90;74.93
49835;BME280;35729;52.090;13.162;2023-06-10T03:17:03;100990.66;;;14.89;75.37
49835;BME280;35729;52.090;13.162;2023-06-10T03:19:38;100998.63;;;14.87;75.22
49835;BME280;35729;52.090;13.162;2023-06-10T03:22:14;100995.19;;;14.85;75.04
49835;BME280;35729;52.090;13.162;2023-06-10T03:24:43;101004.78;;;14.88;75.02
49835;BME280;35729;52.090;13.162;2023-06-10T03:27:12;101005.56;;;14.90;75.30
49835;BME280;35729;52.090;13.162;2023-06-10T03:29:40;101002.94;;;14.90;75.07
49835;BME280;35729;52.090;13.162;2023-06-10T03:32:11;101001.94;;;14.92;74.95
49835;BME280;35729;52.090;13.162;2023-06-10T03:34:40;101001.03;;;14.93;74.97
49835;BME280;35729;52.090;13.162;2023-06-10T03:37:10;101006.16;;;14.98;75.13
49835;BME280;35729;52.090;13.162;2023-06-10T03:39:38;100996.41;;;15.00;75.12
49835;BME280;35729;52.090;13.162;2023-06-10T03:42:07;101007.00;;;15.00;75.43
49835;BME280;35729;52.090;13.162;2023-06-10T03:44:35;101000.88;;;14.98;75.60
49835;BME280;35729;52.090;13.162;2023-06-10T03:47:04;101006.22;;;14.96;75.45
49835;BME280;35729;52.090;13.162;2023-06-10T03:49:35;101005.34;;;14.96;75.61
49835;BME280;35729;52.090;13.162;2023-06-10T03:52:06;101002.72;;;14.96;75.73
49835;BME280;35729;52.090;13.162;2023-06-10T03:54:35;101016.81;;;14.96;75.61
49835;BME280;35729;52.090;13.162;2023-06-10T03:57:04;101027.31;;;14.98;76.00
49835;BME280;35729;52.090;13.162;2023-06-10T03:59:32;101025.47;;;15.00;75.58
49835;BME280;35729;52.090;13.162;2023-06-10T04:02:01;101021.91;;;15.01;75.90
49835;BME280;35729;52.090;13.162;2023-06-10T04:04:30;101023.75;;;14.99;76.05
49835;BME280;35729;52.090;13.162;2023-06-10T04:07:01;101026.47;;;14.97;75.91
49835;BME280;35729;52.090;13.162;2023-06-10T04:09:30;101030.84;;;14.97;75.97
49835;BME280;35729;52.090;13.162;2023-06-10T04:11:58;101031.75;;;14.97;75.89
49835;BME280;35729;52.090;13.162;2023-06-10T04:14:27;101025.47;;;15.00;75.85
49835;BME280;35729;52.090;13.162;2023-06-10T04:16:55;101035.03;;;15.04;75.95
49835;BME280;35729;52.090;13.162;2023-06-10T04:19:24;101041.09;;;15.06;76.28
49835;BME280;35729;52.090;13.162;2023-06-10T04:21:53;101033.16;;;15.06;76.25
49835;BME280;35729;52.090;13.162;2023-06-10T04:24:25;101025.22;;;15.06;76.26
49835;BME280;35729;52.090;13.162;2023-06-10T04:26:53;101039.28;;;15.08;76.30
49835;BME280;35729;52.090;13.162;2023-06-10T04:29:22;101036.63;;;15.08;76.08
49835;BME280;35729;52.090;13.162;2023-06-10T04:31:50;101037.44;;;15.10;76.45
49835;BME280;35729;52.090;13.162;2023-06-10T04:34:19;101037.44;;;15.10;76.48
49835;BME280;35729;52.090;13.162;2023-06-10T04:36:47;101035.66;;;15.11;76.40
49835;BME280;35729;52.090;13.162;2023-06-10T04:39:16;101040.84;;;15.14;76.51
49835;BME280;35729;52.090;13.162;2023-06-10T04:41:47;101044.28;;;15.16;76.45
49835;BME280;35729;52.090;13.162;2023-06-10T04:44:16;101034.47;;;15.20;76.62
49835;BME280;35729;52.090;13.162;2023-06-10T04:46:44;101043.19;;;15.22;76.17
49835;BME280;35729;52.090;13.162;2023-06-10T04:49:13;101039.66;;;15.23;76.39
49835;BME280;35729;52.090;13.162;2023-06-10T04:51:42;101043.06;;;15.25;76.54
49835;BME280;35729;52.090;13.162;2023-06-10T04:54:10;101046.47;;;15.28;76.22
49835;BME280;35729;52.090;13.162;2023-06-10T04:56:39;101040.22;;;15.31;76.24
49835;BME280;35729;52.090;13.162;2023-06-10T04:59:10;101048.97;;;15.33;76.04
49835;BME280;35729;52.090;13.162;2023-06-10T05:01:39;101041.66;;;15.40;76.21
49835;BME280;35729;52.090;13.162;2023-06-10T05:04:08;101042.28;;;15.46;76.00
49835;BME280;35729;52.090;13.162;2023-06-10T05:06:36;101045.59;;;15.52;75.80
49835;BME280;35729;52.090;13.162;2023-06-10T05:09:05;101047.19;;;15.57;75.71
49835;BME280;35729;52.090;13.162;2023-06-10T05:11:33;101045.28;;;15.61;75.66
49835;BME280;35729;52.090;13.162;2023-06-10T05:14:02;101048.53;;;15.68;75.52
49835;BME280;35729;52.090;13.162;2023-06-10T05:16:33;101050.91;;;15.75;75.38
49835;BME280;35729;52.090;13.162;2023-06-10T05:19:08;101048.84;;;15.84;75.59
49835;BME280;35729;52.090;13.162;2023-06-10T05:21:45;101049.53;;;15.89;75.01
49835;BME280;35729;52.090;13.162;2023-06-10T05:24:13;101052.88;;;15.94;74.78
49835;BME280;35729;52.090;13.162;2023-06-10T05:26:42;101054.38;;;16.00;75.07
49835;BME280;35729;52.090;13.162;2023-06-10T05:29:10;101055.94;;;16.05;74.55
49835;BME280;35729;52.090;13.162;2023-06-10T05:31:41;101058.44;;;16.10;74.60
49835;BME280;35729;52.090;13.162;2023-06-10T05:34:09;101061.75;;;16.15;74.37
49835;BME280;35729;52.090;13.162;2023-06-10T05:36:38;101062.41;;;16.20;74.62
49835;BME280;35729;52.090;13.162;2023-06-10T05:39:06;101056.91;;;16.25;74.53
49835;BME280;35729;52.090;13.162;2023-06-10T05:41:35;101062.88;;;16.30;74.41
49835;BME280;35729;52.090;13.162;2023-06-10T05:44:03;101062.78;;;16.33;74.31
49835;BME280;35729;52.090;13.162;2023-06-10T05:46:32;101063.44;;;16.38;74.01
49835;BME280;35729;52.090;13.162;2023-06-10T05:49:03;101061.41;;;16.45;74.19
49835;BME280;35729;52.090;13.162;2023-06-10T05:51:32;101062.94;;;16.51;74.04
49835;BME280;35729;52.090;13.162;2023-06-10T05:54:00;101063.63;;;16.56;74.05
49835;BME280;35729;52.090;13.162;2023-06-10T05:56:29;101058.91;;;16.63;73.39
49835;BME280;35729;52.090;13.162;2023-06-10T05:58:57;101065.53;;;16.73;73.35
49835;BME280;35729;52.090;13.162;2023-06-10T06:01:26;101058.00;;;16.84;73.25
49835;BME280;35729;52.090;13.162;2023-06-10T06:03:54;101056.78;;;16.93;73.27
49835;BME280;35729;52.090;13.162;2023-06-10T06:06:25;101063.53;;;17.00;72.82
49835;BME280;35729;52.090;13.162;2023-06-10T06:08:53;101072.22;;;17.04;72.63
49835;BME280;35729;52.090;13.162;2023-06-10T06:11:22;101066.78;;;17.07;72.42
49835;BME280;35729;52.090;13.162;2023-06-10T06:13:52;101062.28;;;17.09;72.31
49835;BME280;35729;52.090;13.162;2023-06-10T06:16:20;101057.56;;;17.16;72.45
49835;BME280;35729;52.090;13.162;2023-06-10T06:18:48;101064.25;;;17.24;72.09
49835;BME280;35729;52.090;13.162;2023-06-10T06:21:17;101066.53;;;17.32;72.17
49835;BME280;35729;52.090;13.162;2023-06-10T06:23:48;101068.91;;;17.38;71.59
49835;BME280;35729;52.090;13.162;2023-06-10T06:26:16;101067.66;;;17.47;71.73
49835;BME280;35729;52.090;13.162;2023-06-10T06:28:45;101065.56;;;17.54;71.48
49835;BME280;35729;52.090;13.162;2023-06-10T06:31:13;101071.41;;;17.62;71.21
49835;BME280;35729;52.090;13.162;2023-06-10T06:33:42;101070.22;;;17.68;71.25
49835;BME280;35729;52.090;13.162;2023-06-10T06:36:10;101068.19;;;17.74;70.79
49835;BME280;35729;52.090;13.162;2023-06-10T06:38:39;101068.81;;;17.80;70.48
49835;BME280;35729;52.090;13.162;2023-06-10T06:41:10;101076.41;;;17.87;70.29
49835;BME280;35729;52.090;13.162;2023-06-10T06:43:38;101074.34;;;17.94;70.44
49835;BME280;35729;52.090;13.162;2023-06-10T06:46:08;101073.06;;;18.03;69.92
49835;BME280;35729;52.090;13.162;2023-06-10T06:48:36;101074.28;;;18.15;69.83
49835;BME280;35729;52.090;13.162;2023-06-10T06:51:05;101077.34;;;18.24;69.74
49835;BME280;35729;52.090;13.162;2023-06-10T06:53:33;101081.19;;;18.36;69.46
49835;BME280;35729;52.090;13.162;2023-06-10T06:56:02;101082.53;;;18.45;69.17
49835;BME280;35729;52.090;13.162;2023-06-10T06:58:33;101079.34;;;18.56;68.93
49835;BME280;35729;52.090;13.162;2023-06-10T07:01:01;101079.75;;;18.66;68.48
49835;BME280;35729;52.090;13.162;2023-06-10T07:03:30;101084.53;;;18.77;67.84
49835;BME280;35729;52.090;13.162;2023-06-10T07:05:58;101088.44;;;18.87;67.84
49835;BME280;35729;52.090;13.162;2023-06-10T07:08:27;101086.25;;;18.95;67.10
49835;BME280;35729;52.090;13.162;2023-06-10T07:10:55;101091.03;;;19.06;66.75
49835;BME280;35729;52.090;13.162;2023-06-10T07:13:24;101092.34;;;19.15;66.45
49835;BME280;35729;52.090;13.162;2023-06-10T07:15:55;101095.44;;;19.23;66.57
49835;BME280;35729;52.090;13.162;2023-06-10T07:18:24;101102.19;;;19.30;65.82
49835;BME280;35729;52.090;13.162;2023-06-10T07:20:52;101092.94;;;19.37;65.95
49835;BME280;35729;52.090;13.162;2023-06-10T07:23:21;101109.34;;;19.46;65.58
49835;BME280;35729;52.090;13.162;2023-06-10T07:25:49;101099.16;;;19.54;65.35
49835;BME280;35729;52.090;13.162;2023-06-10T07:28:18;101099.59;;;19.62;64.95
49835;BME280;35729;52.090;13.162;2023-06-10T07:30:46;101102.63;;;19.72;65.13
49835;BME280;35729;52.090;13.162;2023-06-10T07:33:17;101103.75;;;19.84;64.43
49835;BME280;35729;52.090;13.162;2023-06-10T07:35:46;101096.03;;;19.95;64.11
49835;BME280;35729;52.090;13.162;2023-06-10T07:38:14;101098.31;;;20.03;63.52
49835;BME280;35729;52.090;13.162;2023-06-10T07:40:43;101107.50;;;20.13;63.82
49835;BME280;35729;52.090;13.162;2023-06-10T07:43:11;101100.69;;;20.24;63.25
49835;BME280;35729;52.090;13.162;2023-06-10T07:45:40;101098.63;;;20.29;62.97
49835;BME280;35729;52.090;13.162;2023-06-10T07:48:09;101103.41;;;20.38;62.55
49835;BME280;35729;52.090;13.162;2023-06-10T07:50:40;101101.28;;;20.45;62.31
49835;BME280;35729;52.090;13.162;2023-06-10T07:53:08;101105.28;;;20.52;61.96
49835;BME280;35729;52.090;13.162;2023-06-10T07:55:37;101103.16;;;20.59;62.27
49835;BME280;35729;52.090;13.162;2023-06-10T07:58:05;101100.88;;;20.67;61.82
49835;BME280;35729;52.090;13.162;2023-06-10T08:00:33;101098.47;;;20.78;61.77
49835;BME280;35729;52.090;13.162;2023-06-10T08:03:02;101103.16;;;20.89;61.06
49835;BME280;35729;52.090;13.162;2023-06-10T08:05:30;101104.13;;;21.03;60.72
49835;BME280;35729;52.090;13.162;2023-06-10T08:08:02;101102.56;;;21.14;60.19
49835;BME280;35729;52.090;13.162;2023-06-10T08:10:30;101096.38;;;21.28;60.02
49835;BME280;35729;52.090;13.162;2023-06-10T08:12:59;101099.91;;;21.43;59.95
49835;BME280;35729;52.090;13.162;2023-06-10T08:15:27;101096.41;;;21.57;59.73
49835;BME280;35729;52.090;13.162;2023-06-10T08:17:56;101087.53;;;21.71;58.93
49835;BME280;35729;52.090;13.162;2023-06-10T08:20:31;101090.84;;;21.89;58.27
49835;BME280;35729;52.090;13.162;2023-06-10T08:23:08;101095.41;;;22.02;57.87
49835;BME280;35729;52.090;13.162;2023-06-10T08:25:37;101096.50;;;22.12;57.59
49835;BME280;35729;52.090;13.162;2023-06-10T08:28:05;101099.53;;;22.20;57.53
49835;BME280;35729;52.090;13.162;2023-06-10T08:30:33;101100.66;;;22.31;56.91
49835;BME280;35729;52.090;13.162;2023-06-10T08:33:02;101102.75;;;22.40;56.79
49835;BME280;35729;52.090;13.162;2023-06-10T08:35:30;101105.03;;;22.46;56.11
49835;BME280;35729;52.090;13.162;2023-06-10T08:37:59;101110.81;;;22.53;56.00
49835;BME280;35729;52.090;13.162;2023-06-10T08:40:30;101117.66;;;22.57;56.08
49835;BME280;35729;52.090;13.162;2023-06-10T08:43:05;101104.84;;;22.62;55.99
49835;BME280;35729;52.090;13.162;2023-06-10T08:45:36;101110.53;;;22.70;55.81
49835;BME280;35729;52.090;13.162;2023-06-10T08:48:06;101120.59;;;22.80;55.23
49835;BME280;35729;52.090;13.162;2023-06-10T08:50:35;101112.06;;;22.87;54.91
49835;BME280;35729;52.090;13.162;2023-06-10T08:53:06;101115.19;;;22.94;54.69
49835;BME280;35729;52.090;13.162;2023-06-10T08:55:40;101104.16;;;22.99;54.46
49835;BME280;35729;52.090;13.162;2023-06-10T08:58:10;101104.63;;;23.05;54.11
49835;BME280;35729;52.090;13.162;2023-06-10T09:00:39;101111.16;;;23.14;54.39
49835;BME280;35729;52.090;13.162;2023-06-10T09:03:08;101111.72;;;23.19;54.23
49835;BME280;35729;52.090;13.162;2023-06-10T09:05:37;101106.13;;;23.22;54.17
49835;BME280;35729;52.090;13.162;2023-06-10T09:08:06;101101.25;;;23.29;54.04
49835;BME280;35729;52.090;13.162;2023-06-10T09:10:37;101102.38;;;23.38;53.65
49835;BME280;35729;52.090;13.162;2023-06-10T09:13:06;101105.41;;;23.46;53.41
49835;BME280;35729;52.090;13.162;2023-06-10T09:15:34;101097.69;;;23.54;53.78
49835;BME280;35729;52.090;13.162;2023-06-10T09:18:05;101100.66;;;23.63;53.12
49835;BME280;35729;52.090;13.162;2023-06-10T09:20:34;101094.75;;;23.70;53.00
49835;BME280;35729;52.090;13.162;2023-06-10T09:23:02;101089.81;;;23.77;52.82
49835;BME280;35729;52.090;13.162;2023-06-10T09:25:35;101092.91;;;23.84;52.69
49835;BME280;35729;52.090;13.162;2023-06-10T09:28:13;101095.16;;;23.90;52.17
49835;BME280;35729;52.090;13.162;2023-06-10T09:30:42;101095.56;;;23.97;52.49
49835;BME280;35729;52.090;13.162;2023-06-10T09:33:12;101092.66;;;24.00;51.98
49835;BME280;35729;52.090;13.162;2023-06-10T09:35:45;101098.22;;;24.10;52.19
49835;BME280;35729;52.090;13.162;2023-06-10T09:38:15;101094.13;;;24.17;51.88
49835;BME280;35729;52.090;13.162;2023-06-10T09:40:50;101103.31;;;24.26;51.95
49835;BME280;35729;52.090;13.162;2023-06-10T09:43:22;101098.34;;;24.32;51.23
49835;BME280;35729;52.090;13.162;2023-06-10T09:45:50;101098.50;;;24.42;51.23
49835;BME280;35729;52.090;13.162;2023-06-10T09:48:20;101096.97;;;24.51;50.94
49835;BME280;35729;52.090;13.162;2023-06-10T09:50:49;101091.13;;;24.57;50.82
49835;BME280;35729;52.090;13.162;2023-06-10T09:53:17;101094.97;;;24.66;50.31
49835;BME280;35729;52.090;13.162;2023-06-10T09:55:46;101086.34;;;24.74;49.91
49835;BME280;35729;52.090;13.162;2023-06-10T09:58:14;101096.50;;;24.81;49.62
49835;BME280;35729;52.090;13.162;2023-06-10T10:00:52;101087.72;;;24.91;49.41
49835;BME280;35729;52.090;13.162;2023-06-10T10:03:22;101088.97;;;24.98;49.26
49835;BME280;35729;52.090;13.162;2023-06-10T10:05:58;101089.47;;;25.03;48.62
49835;BME280;35729;52.090;13.162;2023-06-10T10:08:27;101079.84;;;25.12;48.77
49835;BME280;35729;52.090;13.162;2023-06-10T10:10:57;101080.19;;;25.18;48.44
49835;BME280;35729;52.090;13.162;2023-06-10T10:13:26;101083.16;;;25.27;48.22
49835;BME280;35729;52.090;13.162;2023-06-10T10:16:01;101077.06;;;25.36;47.83
49835;BME280;35729;52.090;13.162;2023-06-10T10:18:32;101079.75;;;25.47;47.54
49835;BME280;35729;52.090;13.162;2023-06-10T10:21:07;101070.84;;;25.58;46.70
49835;BME280;35729;52.090;13.162;2023-06-10T10:23:42;101065.09;;;25.74;46.54
49835;BME280;35729;52.090;13.162;2023-06-10T10:26:13;101070.34;;;25.87;45.89
49835;BME280;35729;52.090;13.162;2023-06-10T10:28:45;101064.66;;;26.01;45.59
49835;BME280;35729;52.090;13.162;2023-06-10T10:31:18;101063.69;;;26.14;45.17
49835;BME280;35729;52.090;13.162;2023-06-10T10:33:54;101067.19;;;26.26;45.07
49835;BME280;35729;52.090;13.162;2023-06-10T10:36:24;101076.69;;;26.41;44.43
49835;BME280;35729;52.090;13.162;2023-06-10T10:38:53;101063.28;;;26.51;43.62
49835;BME280;35729;52.090;13.162;2023-06-10T10:41:23;101060.09;;;26.57;43.73
49835;BME280;35729;52.090;13.162;2023-06-10T10:43:53;101063.22;;;26.62;43.83
49835;BME280;35729;52.090;13.162;2023-06-10T10:46:24;101052.53;;;26.72;42.93
49835;BME280;35729;52.090;13.162;2023-06-10T10:48:54;101053.63;;;26.81;42.58
49835;BME280;35729;52.090;13.162;2023-06-10T10:51:23;101056.03;;;26.84;42.86
49835;BME280;35729;52.090;13.162;2023-06-10T10:54:11;101064.72;;;26.88;42.60
49835;BME280;35729;52.090;13.162;2023-06-10T10:56:40;101054.91;;;26.87;42.67
49835;BME280;35729;52.090;13.162;2023-06-10T10:59:43;101057.63;;;26.87;42.79
49835;BME280;35729;52.090;13.162;2023-06-10T11:02:18;101046.00;;;26.86;42.23
49835;BME280;35729;52.090;13.162;2023-06-10T11:04:47;101049.53;;;26.87;42.43
49835;BME280;35729;52.090;13.162;2023-06-10T11:07:20;101052.22;;;26.87;42.17
49835;BME280;35729;52.090;13.162;2023-06-10T11:09:58;101051.38;;;26.86;42.10
49835;BME280;35729;52.090;13.162;2023-06-10T11:12:41;101051.38;;;26.86;42.26
49835;BME280;35729;52.090;13.162;2023-06-10T11:15:09;101042.47;;;26.86;42.05
49835;BME280;35729;52.090;13.162;2023-06-10T11:18:10;101037.94;;;26.86;42.45
49835;BME280;35729;52.090;13.162;2023-06-10T11:20:51;101028.88;;;26.87;42.10
49835;BME280;35729;52.090;13.162;2023-06-10T11:23:33;101034.13;;;26.89;42.65
49835;BME280;35729;52.090;13.162;2023-06-10T11:26:20;101032.16;;;26.91;42.61
49835;BME280;35729;52.090;13.162;2023-06-10T11:29:08;101030.44;;;26.90;42.15
49835;BME280;35729;52.090;13.162;2023-06-10T11:31:49;101028.88;;;26.87;42.00
49835;BME280;35729;52.090;13.162;2023-06-10T11:34:24;101032.81;;;26.83;46.22
49835;BME280;35729;52.090;13.162;2023-06-10T11:36:53;101036.03;;;26.77;45.26
49835;BME280;35729;52.090;13.162;2023-06-10T11:39:23;101022.88;;;26.62;46.56
49835;BME280;35729;52.090;13.162;2023-06-10T11:41:52;101017.75;;;26.38;48.08
49835;BME280;35729;52.090;13.162;2023-06-10T11:44:21;101010.38;;;26.19;48.59
49835;BME280;35729;52.090;13.162;2023-06-10T11:46:49;101016.91;;;26.05;49.27
49835;BME280;35729;52.090;13.162;2023-06-10T11:49:20;101020.34;;;25.96;50.54
49835;BME280;35729;52.090;13.162;2023-06-10T11:51:52;101029.63;;;25.92;50.67
49835;BME280;35729;52.090;13.162;2023-06-10T11:54:20;101030.03;;;25.87;50.24
49835;BME280;35729;52.090;13.162;2023-06-10T11:56:49;101027.56;;;25.84;49.84
49835;BME280;35729;52.090;13.162;2023-06-10T11:59:18;101030.53;;;25.81;49.65
49835;BME280;35729;52.090;13.162;2023-06-10T12:01:46;101027.22;;;25.77;49.05
49835;BME280;35729;52.090;13.162;2023-06-10T12:04:16;101040.91;;;25.74;49.79
49835;BME280;35729;52.090;13.162;2023-06-10T12:06:46;101026.00;;;25.70;50.13
49835;BME280;35729;52.090;13.162;2023-06-10T12:09:19;101025.53;;;25.65;51.04
49835;BME280;35729;52.090;13.162;2023-06-10T12:11:49;101014.19;;;25.61;50.30
49835;BME280;35729;52.090;13.162;2023-06-10T12:17:17;101003.88;;;25.78;51.88
49835;BME280;35729;52.090;13.162;2023-06-10T12:19:46;101009.59;;;25.96;48.32
49835;BME280;35729;52.090;13.162;2023-06-10T12:22:15;101016.88;;;26.16;45.32
49835;BME280;35729;52.090;13.162;2023-06-10T12:24:57;101018.06;;;26.45;43.65
49835;BME280;35729;52.090;13.162;2023-06-10T12:27:28;101013.78;;;26.75;43.35
49835;BME280;35729;52.090;13.162;2023-06-10T12:29:57;101016.63;;;27.04;42.63
49835;BME280;35729;52.090;13.162;2023-06-10T12:32:36;101019.28;;;27.25;40.27
49835;BME280;35729;52.090;13.162;2023-06-10T12:35:06;101028.84;;;27.39;40.93
49835;BME280;35729;52.090;13.162;2023-06-10T12:37:35;101033.41;;;27.48;40.41
49835;BME280;35729;52.090;13.162;2023-06-10T12:40:07;101023.53;;;27.59;39.71
49835;BME280;35729;52.090;13.162;2023-06-10T12:42:36;101026.38;;;27.67;40.03
49835;BME280;35729;52.090;13.162;2023-06-10T12:45:06;101026.66;;;27.74;39.34
49835;BME280;35729;52.090;13.162;2023-06-10T12:47:37;101018.34;;;27.87;38.74
49835;BME280;35729;52.090;13.162;2023-06-10T12:50:07;101015.81;;;28.05;37.80
49835;BME280;35729;52.090;13.162;2023-06-10T12:52:37;101018.25;;;28.18;37.37
49835;BME280;35729;52.090;13.162;2023-06-10T12:55:09;101012.69;;;28.29;37.32
49835;BME280;35729;52.090;13.162;2023-06-10T12:57:37;101025.78;;;28.34;36.76
49835;BME280;35729;52.090;13.162;2023-06-10T13:00:16;101022.09;;;28.35;36.50